createdAt,value
2018-12-23T00:02:26.431Z,98524.13
2018-12-23T00:04:54.872Z,98523.80
2018-12-23T00:07:23.275Z,98520.02
2018-12-23T00:09:51.713Z,98518.69
2018-12-23T00:12:20.125Z,98526.98
2018-12-23T00:14:48.596Z,98535.44
2018-12-23T00:17:17.000Z,98530.37
2018-12-23T00:19:45.435Z,98530.56
2018-12-23T00:22:13.832Z,98535.48
2018-12-23T00:24:42.272Z,98534.05
2018-12-23T00:27:10.682Z,98524.66
2018-12-23T00:29:39.133Z,98543.48
2018-12-23T00:32:07.540Z,98530.41
2018-12-23T00:34:35.979Z,98539.00
2018-12-23T00:37:04.517Z,98555.95
2018-12-23T00:39:32.955Z,98558.20
2018-12-23T00:42:01.369Z,98548.91
2018-12-23T00:44:29.832Z,98553.09
2018-12-23T00:46:58.232Z,98566.13
2018-12-23T00:49:26.708Z,98562.70
2018-12-23T00:51:55.119Z,98567.08
2018-12-23T00:54:23.944Z,98568.30
2018-12-23T00:56:52.359Z,98578.14
2018-12-23T00:59:20.791Z,98580.59
2018-12-23T01:01:49.196Z,98576.13
2018-12-23T01:04:17.625Z,98583.25
2018-12-23T01:06:46.163Z,98588.25
2018-12-23T01:09:14.587Z,98589.64
2018-12-23T01:11:42.995Z,98604.41
2018-12-23T01:14:11.444Z,98598.47
2018-12-23T01:16:39.867Z,98599.60
2018-12-23T01:19:08.312Z,98601.81
2018-12-23T01:21:36.718Z,98604.66
2018-12-23T01:24:05.161Z,98608.89
2018-12-23T01:26:33.564Z,98611.73
2018-12-23T01:29:02.004Z,98620.19
2018-12-23T01:31:30.382Z,98617.78
2018-12-23T01:33:58.779Z,98621.70
2018-12-23T01:36:27.311Z,98614.83
2018-12-23T01:38:55.725Z,98630.56
2018-12-23T01:41:24.166Z,98635.06
2018-12-23T01:43:52.568Z,98636.30
2018-12-23T01:46:20.999Z,98629.03
2018-12-23T01:48:49.414Z,98632.08
2018-12-23T01:51:17.859Z,98627.84
2018-12-23T01:53:46.363Z,98631.05
2018-12-23T01:56:14.818Z,98629.61
2018-12-23T01:58:43.231Z,98634.73
2018-12-23T02:01:11.680Z,98633.01
2018-12-23T02:03:40.087Z,98635.16
2018-12-23T02:06:08.514Z,98634.48
2018-12-23T02:08:36.914Z,98633.45
2018-12-23T02:11:05.471Z,98640.09
2018-12-23T02:13:33.884Z,98642.14
2018-12-23T02:16:02.500Z,98639.92
2018-12-23T02:18:31.009Z,98639.48
2018-12-23T02:20:59.443Z,98645.23
2018-12-23T02:23:27.864Z,98646.56
2018-12-23T02:25:56.287Z,98645.53
2018-12-23T02:28:24.687Z,98657.33
2018-12-23T02:30:53.396Z,98652.66
2018-12-23T02:33:21.904Z,98657.27
2018-12-23T02:35:55.501Z,98650.64
2018-12-23T02:38:20.843Z,98655.31
2018-12-23T02:40:49.362Z,98656.89
2018-12-23T02:43:17.789Z,98658.02
2018-12-23T02:45:46.358Z,98659.29
2018-12-23T02:48:14.773Z,98649.27
2018-12-23T02:50:43.194Z,98650.78
2018-12-23T02:53:11.603Z,98657.86
2018-12-23T02:55:40.042Z,98660.50
2018-12-23T02:58:08.441Z,98657.27
2018-12-23T03:00:36.902Z,98659.36
2018-12-23T03:03:05.425Z,98657.44
2018-12-23T03:05:33.867Z,98664.84
2018-12-23T03:08:02.284Z,98661.61
2018-12-23T03:10:30.723Z,98666.27
2018-12-23T03:12:59.175Z,98648.72
2018-12-23T03:15:27.648Z,98651.41
2018-12-23T03:17:56.044Z,98655.27
2018-12-23T03:20:24.470Z,98664.09
2018-12-23T03:22:53.000Z,98663.91
2018-12-23T03:25:21.448Z,98657.02
2018-12-23T03:27:49.847Z,98650.52
2018-12-23T03:30:18.268Z,98658.02
2018-12-23T03:32:46.703Z,98653.73
2018-12-23T03:35:15.270Z,98656.05
2018-12-23T03:37:43.674Z,98661.88
2018-12-23T03:40:12.107Z,98662.67
2018-12-23T03:42:40.517Z,98663.05
2018-12-23T03:45:09.085Z,98666.64
2018-12-23T03:47:37.485Z,98656.72
2018-12-23T03:50:06.668Z,98671.17
2018-12-23T03:52:35.103Z,98664.36
2018-12-23T03:55:03.655Z,98668.41
2018-12-23T03:57:32.108Z,98669.23
2018-12-23T04:00:00.671Z,98664.09
2018-12-23T04:02:29.271Z,98671.55
2018-12-23T04:04:57.826Z,98680.73
2018-12-23T04:07:26.247Z,98675.73
2018-12-23T04:09:54.687Z,98684.45
2018-12-23T04:12:23.091Z,98688.44
2018-12-23T04:14:51.529Z,98692.13
2018-12-23T04:17:20.081Z,98684.67
2018-12-23T04:19:48.495Z,98686.44
2018-12-23T04:22:16.968Z,98681.73
2018-12-23T04:24:45.439Z,98685.02
2018-12-23T04:27:13.870Z,98683.36
2018-12-23T04:29:42.280Z,98695.44
2018-12-23T04:32:10.727Z,98696.67
2018-12-23T04:37:32.477Z,98697.91
2018-12-23T04:40:00.900Z,98696.97
2018-12-23T04:42:29.274Z,98694.72
2018-12-23T04:44:57.664Z,98698.58
2018-12-23T04:47:26.179Z,98708.80
2018-12-23T04:49:54.585Z,98711.88
2018-12-23T04:52:22.996Z,98713.58
2018-12-23T04:54:51.395Z,98712.70
2018-12-23T04:57:19.835Z,98705.81
2018-12-23T04:59:48.225Z,98710.81
2018-12-23T05:02:16.645Z,98714.98
2018-12-23T05:04:45.044Z,98719.22
2018-12-23T05:07:13.475Z,98715.36
2018-12-23T05:09:41.876Z,98719.17
2018-12-23T05:12:10.292Z,98709.18
2018-12-23T05:14:38.696Z,98714.03
2018-12-23T05:17:07.131Z,98718.62
2018-12-23T05:19:35.540Z,98710.85
2018-12-23T05:22:04.086Z,98719.67
2018-12-23T05:24:32.465Z,98722.93
2018-12-23T05:27:00.892Z,98721.48
2018-12-23T05:29:29.395Z,98717.82
2018-12-23T05:31:57.824Z,98718.50
2018-12-23T05:34:26.208Z,98723.98
2018-12-23T05:36:54.640Z,98727.66
2018-12-23T05:39:23.042Z,98724.09
2018-12-23T05:41:51.481Z,98730.89
2018-12-23T05:44:19.882Z,98731.57
2018-12-23T05:46:48.307Z,98737.70
2018-12-23T05:49:16.700Z,98744.31
2018-12-23T05:51:45.113Z,98753.77
2018-12-23T05:54:13.509Z,98749.76
2018-12-23T05:56:41.937Z,98756.11
2018-12-23T05:59:10.347Z,98747.70
2018-12-23T06:01:38.779Z,98752.27
2018-12-23T06:04:07.177Z,98747.67
2018-12-23T06:06:35.595Z,98758.18
2018-12-23T06:09:05.524Z,98751.98
2018-12-23T06:11:34.115Z,98760.86
2018-12-23T06:14:02.503Z,98750.84
2018-12-23T06:16:31.574Z,98757.55
2018-12-23T06:19:00.387Z,98750.25
2018-12-23T06:21:28.831Z,98758.08
2018-12-23T06:23:57.261Z,98763.19
2018-12-23T06:26:25.724Z,98774.28
2018-12-23T06:28:54.130Z,98764.30
2018-12-23T06:31:22.574Z,98766.11
2018-12-23T06:33:50.997Z,98770.55
2018-12-23T06:36:19.431Z,98774.09
2018-12-23T06:38:47.903Z,98777.11
2018-12-23T06:41:16.327Z,98785.44
2018-12-23T06:43:44.846Z,98781.22
2018-12-23T06:46:13.447Z,98783.59
2018-12-23T06:48:41.828Z,98793.19
2018-12-23T06:51:10.261Z,98788.91
2018-12-23T06:53:38.666Z,98791.73
2018-12-23T06:56:07.133Z,98792.70
2018-12-23T06:58:35.531Z,98799.42
2018-12-23T07:01:03.999Z,98798.61
2018-12-23T07:03:32.402Z,98795.56
2018-12-23T07:06:00.808Z,98794.70
2018-12-23T07:08:29.251Z,98797.56
2018-12-23T07:10:57.783Z,98800.19
2018-12-23T07:13:26.475Z,98809.05
2018-12-23T07:15:54.935Z,98813.00
2018-12-23T07:18:23.334Z,98815.36
2018-12-23T07:20:51.841Z,98810.52
2018-12-23T07:23:20.258Z,98819.84
2018-12-23T07:25:48.651Z,98818.63
2018-12-23T07:28:17.072Z,98819.80
2018-12-23T07:30:45.472Z,98809.96
2018-12-23T07:33:13.913Z,98814.73
2018-12-23T07:35:42.353Z,98816.13
2018-12-23T07:38:10.755Z,98811.28
2018-12-23T07:40:39.157Z,98818.67
2018-12-23T07:43:07.608Z,98814.16
2018-12-23T07:45:36.007Z,98817.49
2018-12-23T07:48:04.445Z,98816.78
2018-12-23T07:50:32.852Z,98828.34
2018-12-23T07:53:01.282Z,98826.78
2018-12-23T07:55:29.679Z,98830.49
2018-12-23T07:57:58.123Z,98830.87
2018-12-23T08:00:26.511Z,98831.55
2018-12-23T08:02:54.936Z,98835.86
2018-12-23T08:05:23.352Z,98827.27
2018-12-23T08:07:51.780Z,98826.47
2018-12-23T08:10:20.199Z,98834.42
2018-12-23T08:12:48.644Z,98838.41
2018-12-23T08:15:17.059Z,98849.65
2018-12-23T08:17:45.481Z,98849.80
2018-12-23T08:20:13.875Z,98852.72
2018-12-23T08:22:42.307Z,98851.36
2018-12-23T08:25:10.726Z,98850.34
2018-12-23T08:27:39.172Z,98851.86
2018-12-23T08:30:07.595Z,98851.52
2018-12-23T08:32:36.019Z,98852.13
2018-12-23T08:35:04.592Z,98850.30
2018-12-23T08:37:33.662Z,98848.60
2018-12-23T08:40:02.067Z,98853.94
2018-12-23T08:42:30.503Z,98847.39
2018-12-23T08:44:58.899Z,98842.50
2018-12-23T08:47:27.343Z,98843.22
2018-12-23T08:49:55.803Z,98845.03
2018-12-23T08:52:24.326Z,98845.98
2018-12-23T08:54:52.783Z,98844.94
2018-12-23T08:57:21.212Z,98849.18
2018-12-23T08:59:49.644Z,98851.27
2018-12-23T09:02:18.084Z,98850.53
2018-12-23T09:04:46.517Z,98856.34
2018-12-23T09:07:14.993Z,98851.48
2018-12-23T09:09:43.408Z,98840.81
2018-12-23T09:12:22.528Z,98848.00
2018-12-23T09:14:51.051Z,98842.31
2018-12-23T09:17:19.516Z,98833.89
2018-12-23T09:19:48.473Z,98843.13
2018-12-23T09:22:17.048Z,98838.83
2018-12-23T09:24:45.517Z,98832.69
2018-12-23T09:27:13.947Z,98833.70
2018-12-23T09:29:42.348Z,98832.55
2018-12-23T09:32:10.851Z,98835.30
2018-12-23T09:34:39.264Z,98830.25
2018-12-23T09:37:07.720Z,98829.00
2018-12-23T09:39:36.259Z,98826.08
2018-12-23T09:42:04.774Z,98826.91
2018-12-23T09:44:33.211Z,98826.64
2018-12-23T09:47:01.651Z,98824.67
2018-12-23T09:49:30.060Z,98816.22
2018-12-23T09:51:58.720Z,98824.67
2018-12-23T09:54:27.189Z,98825.02
2018-12-23T09:56:55.639Z,98825.75
2018-12-23T09:59:24.043Z,98828.40
2018-12-23T10:01:52.658Z,98827.50
2018-12-23T10:04:21.095Z,98816.20
2018-12-23T10:06:49.505Z,98809.33
2018-12-23T10:09:17.966Z,98808.73
2018-12-23T10:11:46.358Z,98810.59
2018-12-23T10:14:14.780Z,98814.56
2018-12-23T10:16:43.223Z,98807.60
2018-12-23T10:19:11.663Z,98814.00
2018-12-23T10:21:40.356Z,98807.86
2018-12-23T10:29:54.627Z,98788.77
2018-12-23T10:32:23.092Z,98785.50
2018-12-23T10:34:51.647Z,98788.65
2018-12-23T10:40:13.364Z,98783.72
2018-12-23T10:51:19.672Z,98770.48
2018-12-23T10:53:49.893Z,98770.74
2018-12-23T10:59:14.231Z,98759.50
2018-12-23T11:01:42.692Z,98763.09
2018-12-23T11:04:11.209Z,98752.61
2018-12-23T11:09:32.836Z,98747.50
2018-12-23T11:12:01.331Z,98740.38
2018-12-23T11:14:29.875Z,98734.94
2018-12-23T11:16:58.358Z,98727.69
2018-12-23T11:19:28.118Z,98729.50
2018-12-23T11:21:56.558Z,98722.30
2018-12-23T11:24:25.033Z,98725.48
2018-12-23T11:26:53.927Z,98719.69
2018-12-23T11:29:22.459Z,98709.89
2018-12-23T11:31:50.916Z,98707.66
2018-12-23T11:34:19.375Z,98703.78
2018-12-23T11:36:47.813Z,98698.76
2018-12-23T12:05:13.720Z,98663.45
2018-12-23T12:10:35.366Z,98654.97
2018-12-23T12:15:56.344Z,98645.12
2018-12-23T12:18:24.808Z,98636.00
2018-12-23T12:23:46.296Z,98631.49
2018-12-23T12:26:14.788Z,98637.41
2018-12-23T12:28:43.288Z,98626.58
2018-12-23T12:31:30.337Z,98616.05
2018-12-23T12:33:58.855Z,98623.59
2018-12-23T12:36:27.300Z,98614.77
2018-12-23T12:38:55.791Z,98607.72
2018-12-23T12:44:18.034Z,98608.66
2018-12-23T12:46:47.210Z,98608.13
2018-12-23T12:49:16.290Z,98612.04
2018-12-23T12:51:44.984Z,98604.55
2018-12-23T12:54:14.162Z,98591.44
2018-12-23T12:56:42.824Z,98587.02
2018-12-23T12:59:11.345Z,98586.59
2018-12-23T13:01:39.882Z,98589.33
2018-12-23T13:04:08.615Z,98587.52
2018-12-23T13:06:37.123Z,98579.48
2018-12-23T13:09:09.251Z,98573.89
2018-12-23T13:11:38.467Z,98577.53
2018-12-23T13:14:07.042Z,98573.84
2018-12-23T13:19:28.173Z,98566.52
2018-12-23T13:24:49.292Z,98570.75
2018-12-23T13:27:17.795Z,98561.58
2018-12-23T13:29:46.255Z,98552.75
2018-12-23T13:32:21.004Z,98554.58
2018-12-23T13:47:20.982Z,98529.56
2018-12-23T13:50:05.278Z,98524.85
2018-12-23T13:52:41.852Z,98526.48
2018-12-23T13:55:21.219Z,98525.55
2018-12-23T13:58:03.714Z,98515.45
2018-12-23T14:00:44.326Z,98506.02
2018-12-23T14:03:22.171Z,98493.95
2018-12-23T14:06:07.511Z,98492.18
2018-12-23T14:08:45.265Z,98487.07
2018-12-23T14:14:06.580Z,98489.01
2018-12-23T14:16:35.059Z,98474.70
2018-12-23T14:19:03.488Z,98469.09
2018-12-23T14:21:31.956Z,98465.95
2018-12-23T14:24:00.396Z,98472.72
2018-12-23T14:29:21.830Z,98456.80
2018-12-23T14:31:50.282Z,98461.48
2018-12-23T14:34:18.708Z,98452.48
2018-12-23T14:36:47.170Z,98448.07
2018-12-23T14:39:15.608Z,98443.45
2018-12-23T14:41:44.064Z,98440.30
2018-12-23T14:49:57.423Z,98436.50
2018-12-23T14:52:25.918Z,98430.59
2018-12-23T14:55:00.761Z,98432.02
2018-12-23T15:00:21.748Z,98431.86
2018-12-23T15:02:51.124Z,98426.20
2018-12-23T15:08:13.715Z,98417.59
2018-12-23T15:10:42.313Z,98416.32
2018-12-23T15:13:14.760Z,98405.16
2018-12-23T15:15:43.423Z,98406.18
2018-12-23T15:18:11.962Z,98390.63
2018-12-23T15:20:40.428Z,98386.78
2018-12-23T15:23:10.815Z,98384.75
2018-12-23T15:28:32.569Z,98376.45
2018-12-23T15:31:01.248Z,98368.41
2018-12-23T15:39:14.466Z,98358.64
2018-12-23T15:41:42.959Z,98353.25
2018-12-23T15:44:11.433Z,98346.19
2018-12-23T15:49:32.996Z,98345.14
2018-12-23T15:52:01.464Z,98337.68
2018-12-23T15:54:29.883Z,98336.76
2018-12-23T15:56:58.331Z,98333.63
2018-12-23T15:59:26.782Z,98334.44
2018-12-23T16:01:55.257Z,98325.09
2018-12-23T16:04:23.700Z,98320.12
2018-12-23T16:09:56.516Z,98322.02
2018-12-23T16:18:52.755Z,98312.02
2018-12-23T16:24:13.810Z,98294.20
2018-12-23T16:26:42.243Z,98292.73
2018-12-23T16:29:10.700Z,98284.15
2018-12-23T16:31:39.315Z,98281.20
2018-12-23T16:34:07.760Z,98277.42
2018-12-23T16:36:36.179Z,98272.34
2018-12-23T16:39:07.093Z,98280.91
2018-12-23T16:41:35.617Z,98267.09
2018-12-23T16:44:04.096Z,98261.87
2018-12-23T16:46:32.514Z,98248.32
2018-12-23T16:49:00.972Z,98250.25
2018-12-23T16:51:29.405Z,98238.69
2018-12-23T16:53:57.859Z,98235.55
2018-12-23T16:56:26.296Z,98228.89
2018-12-23T16:58:54.759Z,98229.69
2018-12-23T17:01:23.225Z,98224.39
2018-12-23T17:03:51.759Z,98234.98
2018-12-23T17:06:20.213Z,98217.59
2018-12-23T17:08:48.659Z,98216.64
2018-12-23T17:11:17.166Z,98207.14
2018-12-23T17:13:45.823Z,98214.66
2018-12-23T17:16:14.296Z,98205.46
2018-12-23T17:18:42.767Z,98200.30
2018-12-23T17:21:13.996Z,98200.50
2018-12-23T17:26:34.630Z,98188.24
2018-12-23T17:29:03.092Z,98181.95
2018-12-23T17:31:31.516Z,98181.63
2018-12-23T17:33:59.972Z,98168.38
2018-12-23T17:36:28.436Z,98158.11
2018-12-23T17:38:56.902Z,98145.80
2018-12-23T17:41:25.359Z,98136.66
2018-12-23T17:43:53.813Z,98133.60
2018-12-23T17:46:22.288Z,98126.19
2018-12-23T17:48:50.806Z,98131.98
2018-12-23T17:51:19.227Z,98115.58
2018-12-23T17:53:47.708Z,98113.11
2018-12-23T17:56:16.139Z,98125.02
2018-12-23T17:58:44.563Z,98122.86
2018-12-23T18:01:13.137Z,98128.36
2018-12-23T18:03:41.576Z,98123.27
2018-12-23T18:06:10.016Z,98125.84
2018-12-23T18:08:39.002Z,98114.42
2018-12-23T18:11:07.456Z,98112.80
2018-12-23T18:13:35.902Z,98108.28
2018-12-23T18:16:04.505Z,98100.52
2018-12-23T18:18:33.024Z,98092.92
2018-12-23T18:21:01.484Z,98100.35
2018-12-23T18:23:29.912Z,98093.53
2018-12-23T18:25:58.364Z,98093.75
2018-12-23T18:28:26.811Z,98075.29
2018-12-23T18:30:55.262Z,98067.73
2018-12-23T18:33:23.695Z,98058.47
2018-12-23T18:35:52.147Z,98053.05
2018-12-23T18:38:20.571Z,98041.95
2018-12-23T18:40:49.097Z,98046.00
2018-12-23T18:43:17.680Z,98038.98
2018-12-23T18:45:46.159Z,98037.66
2018-12-23T18:48:14.588Z,98036.33
2018-12-23T18:50:43.067Z,98033.52
2018-12-23T18:53:11.924Z,98026.35
2018-12-23T18:55:40.500Z,98021.35
2018-12-23T18:58:09.016Z,98014.36
2018-12-23T19:00:37.658Z,97998.77
2018-12-23T19:03:06.136Z,97998.67
2018-12-23T19:05:34.635Z,97992.98
2018-12-23T19:11:26.748Z,97980.78
2018-12-23T19:14:06.872Z,97979.25
2018-12-23T19:16:43.719Z,97976.69
2018-12-23T19:21:29.066Z,97968.74
2018-12-23T19:24:13.541Z,97974.12
2018-12-23T19:27:07.804Z,97966.51
2018-12-23T19:31:55.084Z,97942.59
2018-12-23T19:35:08.513Z,97946.50
2018-12-23T19:37:46.938Z,97948.13
2018-12-23T19:41:43.099Z,97937.75
2018-12-23T19:46:27.268Z,97938.29
2018-12-23T19:53:08.742Z,97933.53
2018-12-23T19:55:54.848Z,97933.53
2018-12-23T20:00:42.170Z,97928.73
2018-12-23T20:03:38.615Z,97916.50
2018-12-23T20:06:19.277Z,97909.17
2018-12-23T20:11:31.036Z,97897.05
2018-12-23T20:16:16.864Z,97888.41
2018-12-23T20:19:02.172Z,97881.78
2018-12-23T20:24:38.160Z,97869.95
2018-12-23T20:27:40.014Z,97870.16
2018-12-23T20:30:21.246Z,97858.66
2018-12-23T20:34:13.088Z,97855.40
2018-12-23T20:39:12.230Z,97847.05
2018-12-23T20:47:47.873Z,97816.81
2018-12-23T20:50:58.320Z,97822.23
2018-12-23T20:53:38.288Z,97813.17
2018-12-23T20:56:20.652Z,97809.08
2018-12-23T20:59:14.952Z,97801.84
2018-12-23T21:02:57.297Z,97797.66
2018-12-23T21:05:40.361Z,97781.08
2018-12-23T21:08:33.477Z,97777.31
2018-12-23T21:13:18.101Z,97769.59
2018-12-23T21:15:58.584Z,97761.03
2018-12-23T21:18:39.706Z,97762.47
2018-12-23T21:22:21.731Z,97757.97
2018-12-23T21:27:03.244Z,97756.97
2018-12-23T21:29:58.328Z,97743.52
2018-12-23T21:37:37.465Z,97737.60
2018-12-23T21:40:17.871Z,97733.02
2018-12-23T21:43:02.132Z,97730.16
2018-12-23T21:45:42.280Z,97723.34
2018-12-23T21:48:24.596Z,97729.87
2018-12-23T21:53:06.299Z,97720.80
2018-12-23T21:56:50.449Z,97715.83
2018-12-23T22:02:23.071Z,97714.39
2018-12-23T22:09:09.665Z,97708.05
2018-12-23T22:12:59.876Z,97698.38
2018-12-23T22:15:28.379Z,97694.69
2018-12-23T22:17:56.799Z,97685.90
2018-12-23T22:20:25.309Z,97675.52
2018-12-23T22:22:53.727Z,97667.65
2018-12-23T22:25:22.159Z,97660.02
2018-12-23T22:27:50.628Z,97659.02
2018-12-23T22:30:19.060Z,97657.91
2018-12-23T22:32:47.519Z,97642.44
2018-12-23T22:35:15.944Z,97636.14
2018-12-23T22:37:44.455Z,97635.79
2018-12-23T22:40:12.899Z,97630.49
2018-12-23T22:42:41.394Z,97612.84
2018-12-23T22:45:09.820Z,97617.28
2018-12-23T22:47:38.275Z,97614.23
2018-12-23T22:50:06.743Z,97613.84
2018-12-23T22:52:35.247Z,97622.91
2018-12-23T22:55:03.697Z,97618.39
2018-12-23T22:57:32.144Z,97614.41
2018-12-23T23:00:00.587Z,97600.56
2018-12-23T23:02:29.290Z,97603.50
2018-12-23T23:04:57.723Z,97591.17
2018-12-23T23:07:26.255Z,97583.91
2018-12-23T23:09:54.685Z,97565.40
2018-12-23T23:12:23.156Z,97560.27
2018-12-23T23:14:51.579Z,97554.08
2018-12-23T23:17:20.052Z,97545.13
2018-12-23T23:19:48.520Z,97538.52
2018-12-23T23:22:17.107Z,97524.66
2018-12-23T23:24:45.539Z,97518.82
2018-12-23T23:28:39.590Z,97510.27
2018-12-23T23:31:08.168Z,97490.84
2018-12-23T23:33:36.640Z,97482.24
2018-12-23T23:36:05.097Z,97466.02
2018-12-23T23:38:33.613Z,97452.77
2018-12-23T23:41:02.326Z,97454.41
2018-12-23T23:43:30.792Z,97447.35
2018-12-23T23:45:59.262Z,97439.41
2018-12-23T23:51:20.817Z,97413.61
2018-12-23T23:53:49.285Z,97397.08
2018-12-23T23:56:17.710Z,97400.45
